ヴァガール空港の過去48時間の天気

ヴァガール空港 (Soervaag / Vagar)

現在時刻: 1/21 20:34 WET (1/21 20:34 UTC) 以下の時間は現地時間です。

過去48時間のMETAR気象情報
時間 風向 風速(m/s) 視程 気温(℃) 湿度(%) 気圧(hPa) 天気現象
21 20:20 西南西 6 2800m 8 100 1018 霧雨
21 19:50 西南西 5 3000m 8 100 1018 霧雨 もや
21 19:20 4 2500m 8 100 1019 弱い雨 もや
21 18:50 西南西 5 2600m 8 93 1019 弱い雨 もや
21 18:20 西南西 4 2900m 8 93 1019 弱い雨 もや
21 17:50 西南西 4 3500m 8 93 1019 霧雨 もや
21 17:20 西南西 5 9000m 8 93 1020
21 16:50 西南西 5 9000m 8 93 1020
21 16:20 西南西 6 9000m 8 93 1020
21 15:50 西南西 6 3900m 8 93 1020 もや
21 15:20 西南西 7 3600m 7 100 1020 弱い雨 もや
21 14:50 西南西 6 5000m 7 100 1021 弱い雨
21 14:20 西南西 3 5000m 7 93 1022
21 13:50 西南西 6 5000m 7 93 1022
21 13:20 西南西 8 3500m 7 93 1022 弱い雨 もや
21 12:50 西南西 8 3200m 7 93 1023 弱い雨 もや
21 12:20 西南西 10 5000m 7 93 1023 弱い雨
21 11:50 西南西 9 3600m 7 93 1023 弱い雨 もや
21 11:20 西南西 10 3900m 7 93 1023 弱い雨 もや
21 10:50 西南西 12 10km以上 7 93 1023
21 10:20 西南西 8 4100m 7 93 1024 弱い霧雨 もや
21 09:50 西南西 9 3500m 7 93 1024 弱い雨 もや
21 09:20 西南西 9 2900m 7 93 1024 弱い雨 もや
21 08:50 西南西 7 2300m 7 93 1025 弱い雨
21 08:20 西南西 6 1900m 7 93 1025 霧雨 もや
21 07:50 西南西 6 2100m 7 100 1025 霧雨 もや
21 07:20 西南西 4 1800m 7 93 1025 霧雨 もや
21 06:50 西 3 3000m 7 93 1025 もや
21 06:20 西 5 7000m 7 93 1026
21 05:50 西 4 9000m 7 93 1026
21 05:20 西 6 10km以上 7 93 1026
21 04:50 西 9 10km以上 7 93 1026
21 04:20 西 10 10km以上 7 93 1026
21 03:50 西 11 10km以上 7 93 1026
21 03:20 西 12 10km以上 7 93 1026
21 02:50 西 15 10km以上 7 93 1026
21 02:20 西 14 10km以上 7 93 1026
21 01:50 西 13 6000m 7 93 1026
21 01:20 西 13 4400m 7 93 1026 弱い雨 もや
21 00:50 西 11 3700m 7 100 1027 弱い雨 もや
21 00:20 西 12 7000m 7 93 1027
20 23:50 西 11 4800m 7 93 1027 もや
20 23:20 西 13 3700m 7 93 1026 もや
20 22:50 西 10 3400m 7 93 1027 弱い雨 もや
20 22:20 西 10 2400m 7 93 1027 霧雨
20 21:50 西 9 2500m 7 93 1027 弱い雨
20 21:20 西 10 4500m 7 93 1028 もや
20 20:50 西 7 2700m 7 93 1028 もや
20 20:20 西 9 8000m 7 93 1028
20 19:50 西 10 5000m 6 100 1028
20 19:20 西 10 6000m 6 93 1028
20 18:50 西 8 4200m 6 93 1028 弱い霧雨 もや
20 18:20 西 9 8000m 6 93 1028
20 17:50 西 9 4100m 6 93 1028 もや
20 17:20 西 9 10km以上 6 93 1028 弱い雨
20 16:50 西 9 6000m 6 93 1029
20 16:20 西 11 10km以上 6 87 1029
20 15:50 西 9 10km以上 6 87 1029
20 15:20 西北西 6 10km以上 6 87 1029
20 14:50 西 7 7000m 5 93 1029
20 14:20 西 6 10km以上 5 87 1030
20 13:50 西 8 10km以上 5 87 1030
20 13:20 西 6 10km以上 5 87 1030
20 12:50 西 8 5000m 4 93 1031 弱い雨
20 12:20 西 7 10km以上 5 75 1031
20 11:50 西 6 10km以上 4 81 1031
20 11:20 西 6 10km以上 4 81 1031
20 10:50 西 6 10km以上 4 75 1032
20 10:20 西北西 4 10km以上 4 75 1032
20 09:50 西北西 5 10km以上 4 70 1032
20 09:20 北西 3 10km以上 3 75 1032
20 08:50 西北西 2 10km以上 3 75 1032
20 08:20 西 4 10km以上 3 70 1032
20 07:50 不定 1 10km以上 2 75 1032
20 07:20 不定 1 10km以上 1 75 1032
20 06:50 不定 1 10km以上 1 75 1032
20 06:20 西 2 10km以上 1 75 1032
20 05:50 西北西 2 10km以上 1 69 1032
20 05:20 北西 4 10km以上 1 64 1032
20 04:50 西北西 3 10km以上 2 64 1032
20 04:20 北西 5 10km以上 1 69 1032
20 03:50 北西 5 10km以上 1 64 1032
20 03:20 北西 5 10km以上 1 64 1033
20 02:50 北西 5 10km以上 0 64 1033
20 02:20 西北西 3 10km以上 -2 69 1032
20 01:50 西北西 2 10km以上 -2 64 1032
20 01:20 西北西 2 10km以上 -2 64 1032
20 00:50 北西 4 10km以上 -1 64 1032
20 00:20 西北西 3 10km以上 -2 69 1032
19 23:50 北西 4 10km以上 -1 64 1032
19 23:20 北西 5 10km以上 -1 64 1032
19 22:50 北西 6 10km以上 -1 64 1032
19 22:20 北北西 7 10km以上 -1 64 1031
19 21:50 北西 7 10km以上 -1 64 1031
19 21:20 北西 7 10km以上 -1 59 1031
19 20:50 北西 9 10km以上 -1 59 1031
EKVG 212020Z AUTO 25011KT 210V290 2800 DZ OVC001/// 08/08 Q1018 RMK OVC005/// WIND SKEID 27015G40KT 200V020
EKVG 211950Z AUTO 25009G24KT 170V290 3000 DZ BR OVC001/// 08/08 Q1018 RMK OVC005/// WIND SKEID 27016G31KT 190V330
EKVG 211920Z AUTO VRB07KT 2500 -RA BR OVC001/// 08/08 Q1019 RMK OVC005/// WIND SKEID 25016G38KT 170V310
EKVG 211850Z AUTO 25009KT 220V320 2600 -RA BR OVC001/// 08/07 Q1019 RMK OVC005/// WIND SKEID 25015G36KT 190V320
EKVG 211820Z AUTO 25007G19KT 190V300 2900 -RA BR OVC002/// 08/07 Q1019 RMK OVC005/// WIND SKEID VRB15G36KT
EKVG 211750Z AUTO 25008KT 200V310 3500 DZ BR OVC003/// 08/07 Q1019 RMK OVC005/// WIND SKEID 26013G31KT 150V320
EKVG 211720Z AUTO 25009KT 210V290 9000 OVC003/// 08/07 Q1020 RMK OVC005/// WIND SKEID 25016G37KT 150V300
EKVG 211650Z AUTO 25010KT 9000 OVC003/// 08/07 Q1020 RMK OVC005/// WIND SKEID 26017G32KT 210V310
EKVG 211620Z AUTO 25012KT 9000 OVC003/// 08/07 Q1020 RMK OVC006/// WIND SKEID 25019G31KT 210V280
EKVG 211550Z AUTO 25012KT 3900 BR OVC002/// 08/07 Q1020 RMK OVC006/// WIND SKEID 26018G34KT 220V310
EKVG 211520Z AUTO 25013KT 3600 -RA BR OVC003/// 07/07 Q1020 RMK OVC006/// WIND SKEID 27016G39KT 210V340
EKVG 211450Z AUTO 25011KT 5000 -RA OVC004/// 07/07 Q1021 RMK OVC008/// WIND SKEID 27018G38KT 220V320
EKVG 211420Z AUTO 24005G17KT 5000 OVC007/// 07/06 Q1022 RMK OVC009/// WIND SKEID 27016G29KT 220V300
EKVG 211350Z AUTO 25011KT 5000 OVC006/// 07/06 Q1022 RMK OVC008/// WIND SKEID 26011G25KT 220V320
EKVG 211320Z AUTO 25015KT 3500 -RA BR OVC003/// 07/06 Q1022 RMK BKN008/// OVC023/// WIND SKEID 28013G29KT 200V320
EKVG 211250Z AUTO 25015KT 3200 -RA BR OVC005/// 07/06 Q1023 RMK OVC006/// WIND SKEID 27018G34KT 230V310
EKVG 211220Z AUTO 25019G29KT 5000 -RA OVC005/// 07/06 Q1023 RMK OVC005/// WIND SKEID 27019G42KT 230V310
EKVG 211150Z AUTO 24017KT 3600 -RA BR OVC004/// 07/06 Q1023 RMK OVC005/// WIND SKEID 28015G35KT 220V330
EKVG 211120Z AUTO 25020KT 3900 -RA BR OVC004/// 07/06 Q1023 RMK BKN006/// WIND SKEID 28020G43KT 220V320
EKVG 211050Z AUTO 25023G33KT 9999 BKN005/// 07/06 Q1023 RMK OVC005/// WIND SKEID 28023G45KT
EKVG 211020Z AUTO 25016KT 4100 -DZ BR OVC005/// 07/06 Q1024 RMK OVC007/// WIND SKEID 28020G38KT 240V310
EKVG 210950Z AUTO 25017KT 3500 -RA BR OVC005/// 07/06 Q1024 RMK OVC006/// WIND SKEID 28017G36KT 240V310
EKVG 210920Z AUTO 24018KT 2900 -RA BR OVC002/// 07/06 Q1024 RMK OVC002/// WIND SKEID 26016G28KT 230V300
EKVG 210850Z AUTO 24013KT 2300 -RA OVC001/// 07/06 Q1025 RMK OVC002/// WIND SKEID 26016G27KT 230V310
EKVG 210820Z AUTO 24012KT 1900 DZ BR OVC002/// 07/06 Q1025 RMK OVC002/// WIND SKEID 25019KT
EKVG 210750Z AUTO 25011KT 2100 DZ BR OVC003/// 07/07 Q1025 RMK OVC001/// WIND SKEID 26019G30KT 230V290
EKVG 210720Z AUTO 25008KT 1800 DZ BR OVC002/// 07/06 Q1025 RMK OVC002/// WIND SKEID 27014KT 230V290
EKVG 210650Z AUTO 26005KT 230V290 3000 BR OVC003/// 07/06 Q1025 RMK OVC002/// WIND SKEID 28018KT
EKVG 210620Z AUTO 27009KT 7000 OVC003/// 07/06 Q1026 RMK OVC002/// WIND SKEID 28021KT
EKVG 210550Z AUTO 28007KT 9000 OVC004/// 07/06 Q1026 RMK OVC003/// WIND SKEID 28025KT
EKVG 210520Z AUTO 27011KT 9999 BKN005/// 07/06 Q1026 RMK BKN004/// WIND SKEID 28025KT
EKVG 210450Z AUTO 26017KT 9999 BKN005/// 07/06 Q1026 RMK OVC004/// WIND SKEID 28022KT
EKVG 210420Z AUTO 28019KT 9999 BKN006/// 07/06 Q1026 RMK OVC005/// WIND SKEID 29022G32KT
EKVG 210350Z AUTO 28021KT 9999 OVC007/// 07/06 Q1026 RMK OVC006/// WIND SKEID 28030KT
EKVG 210320Z AUTO 27023KT 9999 OVC008/// 07/06 Q1026 RMK OVC007/// WIND SKEID 29030KT
EKVG 210250Z AUTO 27029KT 9999 OVC008/// 07/06 Q1026 RMK OVC007/// WIND SKEID 29033KT
EKVG 210220Z AUTO 27027KT 9999 OVC008/// 07/06 Q1026 RMK OVC006/// WIND SKEID 28032KT
EKVG 210150Z AUTO 27025KT 6000 OVC009/// 07/06 Q1026 RMK OVC003/// WIND SKEID 29028KT
EKVG 210120Z AUTO 27025KT 4400 -RA BR OVC009/// 07/06 Q1026 RMK OVC004/// WIND SKEID 29027KT
EKVG 210050Z AUTO 27021KT 3700 -RA BR OVC007/// 07/07 Q1027 RMK OVC003/// WIND SKEID 29026KT
EKVG 210020Z AUTO 27024KT 7000 BKN007/// 07/06 Q1027 RMK OVC002/// WIND SKEID 29027KT
EKVG 202350Z AUTO 27022KT 4800 BR OVC003/// 07/06 Q1027 RMK OVC001/// WIND SKEID 28030KT
EKVG 202320Z AUTO 26025KT 3700 BR OVC003/// 07/06 Q1026 RMK OVC001/// WIND SKEID 28030G41KT
EKVG 202250Z AUTO 26020KT 3400 -RA BR OVC003/// 07/06 Q1027 RMK OVC002/// WIND SKEID 28027KT
EKVG 202220Z AUTO 26019KT 2400 DZ OVC004/// 07/06 Q1027 RMK OVC001/// WIND SKEID 27025KT
EKVG 202150Z AUTO 26018KT 2500 -RA OVC003/// 07/06 Q1027 RMK BKN001/// OVC011/// WIND SKEID 27027KT
EKVG 202120Z AUTO 27019KT 4500 BR OVC003/// 07/06 Q1028 RMK OVC001/// WIND SKEID 28025KT
EKVG 202050Z AUTO 28014KT 2700 BR OVC006/// 07/06 Q1028 RMK OVC001/// WIND SKEID 28026KT
EKVG 202020Z AUTO 28017KT 8000 OVC008/// 07/06 Q1028 RMK OVC002/// WIND SKEID 29027KT
EKVG 201950Z AUTO 27019KT 5000 OVC009/// 06/06 Q1028 RMK OVC005/// WIND SKEID 29027KT
EKVG 201920Z AUTO 27019KT 6000 OVC010/// 06/05 Q1028 RMK OVC005/// WIND SKEID 29026KT
EKVG 201850Z AUTO 28015KT 4200 -DZ BR BKN009/// 06/05 Q1028 RMK OVC004/// WIND SKEID 29031KT
EKVG 201820Z AUTO 28018KT 8000 OVC010/// 06/05 Q1028 RMK OVC005/// WIND SKEID 29030KT
EKVG 201750Z AUTO 28017KT 4100 BR OVC012/// 06/05 Q1028 RMK OVC004/// WIND SKEID 29031G42KT
EKVG 201720Z AUTO 28017KT 9999 -RA BKN013/// OVC036/// 06/05 Q1028 RMK OVC003/// WIND SKEID 29028KT
EKVG 201650Z AUTO 28017KT 6000 OVC014/// 06/05 Q1029 RMK OVC007/// WIND SKEID 29029KT
EKVG 201620Z AUTO 27021KT 9999 OVC013/// 06/04 Q1029 RMK OVC008/// WIND SKEID 29032KT
EKVG 201550Z AUTO 28017KT 9999 OVC016/// 06/04 Q1029 RMK OVC011/// WIND SKEID 29027KT
EKVG 201520Z AUTO 29012KT 9999 OVC010/// 06/04 Q1029 RMK BKN009/// WIND SKEID 29027KT
EKVG 201450Z AUTO 27013KT 7000 BKN021/// BKN096/// 05/04 Q1029 RMK BKN014/// BKN099/// WIND SKEID 28023KT
EKVG 201420Z AUTO 28012KT 9999 BKN014/// 05/03 Q1030 RMK BKN010/// BKN033/// WIND SKEID 29023KT
EKVG 201350Z AUTO 28015KT 9999 BKN015/// BKN110/// 05/03 Q1030 RMK BKN012/// WIND SKEID 29021KT
EKVG 201320Z AUTO 28011KT 9999 BKN014/// 05/03 Q1030 RMK BKN023/// WIND SKEID 29020KT
EKVG 201250Z AUTO 27015KT 5000 -RA OVC020/// 04/03 Q1031 RMK OVC015/// WIND SKEID 29024KT
EKVG 201220Z AUTO 28013KT 9999 OVC024/// 05/01 Q1031 RMK OVC022/// WIND SKEID 29021KT
EKVG 201150Z AUTO 28011KT 9999 OVC023/// 04/01 Q1031 RMK OVC024/// WIND SKEID 29023KT
EKVG 201120Z AUTO 27012KT 9999 OVC024/// 04/01 Q1031 RMK OVC023/// WIND SKEID 29020KT
EKVG 201050Z AUTO 28011KT 9999 OVC028/// 04/M00 Q1032 RMK OVC029/// WIND SKEID 29021KT
EKVG 201020Z AUTO 30007KT 9999 BKN030/// 04/M00 Q1032 RMK BKN027/// WIND SKEID 29020KT
EKVG 200950Z AUTO 29010KT 9999 SCT031/// BKN170/// 04/M01 Q1032 RMK BKN029/// WIND SKEID 29021KT
EKVG 200920Z AUTO 31005KT 9999 FEW030/// FEW038/// 03/M01 Q1032 RMK SCT030/// WIND SKEID 29021KT
EKVG 200850Z AUTO 29004KT 240V350 9999 FEW031/// 03/M01 Q1032 RMK FEW031/// WIND SKEID 29022KT
EKVG 200820Z AUTO 27008KT 250V340 9999 SCT030/// 03/M02 Q1032 RMK SCT030/// WIND SKEID 29017KT
EKVG 200750Z AUTO VRB02KT 9999 BKN032/// 02/M02 Q1032 RMK BKN030/// WIND SKEID 28017KT
EKVG 200720Z AUTO VRB01KT 9999 BKN033/// 01/M03 Q1032 RMK BKN037/// WIND SKEID 27014KT
EKVG 200650Z AUTO VRB02KT 9999 BKN036/// 01/M03 Q1032 RMK BKN036/// WIND SKEID 28013KT
EKVG 200620Z AUTO 28004KT 260V320 9999 BKN031/// 01/M03 Q1032 RMK BKN029/// WIND SKEID 29016KT
EKVG 200550Z AUTO 29004KT 240V340 9999 BKN033/// 01/M04 Q1032 RMK BKN032/// WIND SKEID 29012KT
EKVG 200520Z AUTO 31007KT 9999 BKN036/// 01/M05 Q1032 RMK BKN034/// WIND SKEID 32014KT
EKVG 200450Z AUTO 30006KT 9999 BKN035/// 02/M04 Q1032 RMK BKN033/// WIND SKEID 32015KT
EKVG 200420Z AUTO 31010KT 9999 OVC033/// 01/M04 Q1032 RMK BKN035/// WIND SKEID 32011KT
EKVG 200350Z AUTO 31009KT 9999 BKN036/// 01/M05 Q1032 RMK BKN035/// WIND SKEID 32018KT
EKVG 200320Z AUTO 31010KT 9999 BKN036/// 01/M05 Q1033 RMK BKN036/// WIND SKEID 32021KT
EKVG 200250Z AUTO 31010KT 9999 FEW039/// M00/M06 Q1033 RMK FEW035/// WIND SKEID 31018KT
EKVG 200220Z AUTO 30005KT 260V330 9999 NCD M02/M07 Q1032 RMK NCD WIND SKEID 31015KT
EKVG 200150Z AUTO 29004KT 9999 NCD M02/M08 Q1032 RMK NCD WIND SKEID 32013KT
EKVG 200120Z AUTO 29004KT 9999 NCD M02/M08 Q1032 RMK NCD WIND SKEID 31014KT
EKVG 200050Z AUTO 31008KT 9999 FEW033/// M01/M07 Q1032 RMK NCD WIND SKEID 31011KT 290V010
EKVG 200020Z AUTO 29006KT 9999 BKN034/// M02/M07 Q1032 RMK NCD WIND SKEID 31013KT
EKVG 192350Z AUTO 31007KT 280V350 9999 BKN034/// M01/M07 Q1032 RMK SCT033/// WIND SKEID 31015KT
EKVG 192320Z AUTO 31009KT 9999 BKN035/// M01/M07 Q1032 RMK SCT035/// WIND SKEID 31014KT 280V350
EKVG 192250Z AUTO 32011KT 9999 BKN036/// M01/M07 Q1032 RMK SCT036/// WIND SKEID 32016G26KT
EKVG 192220Z AUTO 33013KT 9999 BKN037/// M01/M07 Q1031 RMK BKN035/// WIND SKEID 33018G28KT
EKVG 192150Z AUTO 32013KT 9999 BKN036/// M01/M07 Q1031 RMK BKN035/// WIND SKEID 32016G26KT
EKVG 192120Z AUTO 32013KT 9999 BKN038/// M01/M08 Q1031 RMK SCT038/// WIND SKEID 32022KT
EKVG 192050Z AUTO 32018KT 9999 BKN036/// M01/M08 Q1031 RMK BKN035/// WIND SKEID 33023G36KT